Time;durP1;ratioP1;P1;durP2;ratioP2;P2;SDS_P1;SDS_P2;PMS_P1;PMS_P2;Temp;Humidity;BMP_temperature;BMP_pressure;BME280_temperature;BME280_humidity;BME280_pressure;Samples;Min_cycle;Max_cycle;Signal;HPM_P1;HPM_P2
2021/12/05 00:22:00;;;;;;;3.08;1.30;;;3.20;99.90;;;;;;20594586;28;20030;-75
2021/12/05 00:32:16;;;;;;;8.77;2.08;;;3.20;99.90;;;;;;20594045;28;20061;-74
2021/12/05 01:23:45;;;;;;;3.72;1.38;;;3.30;99.90;;;;;;20588975;28;20038;-75
2021/12/05 02:45:36;;;;;;;4.15;0.98;;;2.70;99.90;;;;;;20600593;28;20037;-75
2021/12/05 02:55:41;;;;;;;3.08;0.85;;;2.70;99.90;;;;;;20601748;28;21232;-75
2021/12/05 03:05:44;;;;;;;2.90;1.10;;;2.70;99.90;;;;;;20582711;28;20034;-75
2021/12/05 03:15:46;;;;;;;5.25;1.08;;;2.60;99.90;;;;;;20599497;28;20129;-76
2021/12/05 03:25:47;;;;;;;5.88;1.10;;;2.60;99.90;;;;;;20601522;28;20066;-75
2021/12/05 03:35:48;;;;;;;1.30;0.90;;;2.60;99.90;;;;;;20596087;28;20035;-75
2021/12/05 03:45:52;;;;;;;3.75;1.23;;;2.50;99.90;;;;;;20597693;28;20041;-76
2021/12/05 03:55:57;;;;;;;3.63;1.05;;;2.60;99.90;;;;;;20594796;28;20034;-75
2021/12/05 04:05:59;;;;;;;7.88;1.25;;;2.60;99.90;;;;;;20593342;28;20045;-75
2021/12/05 04:16:06;;;;;;;5.07;1.05;;;2.60;99.90;;;;;;20593976;28;20043;-75
2021/12/05 04:26:08;;;;;;;1.70;0.93;;;2.40;99.90;;;;;;20593242;28;20037;-75
2021/12/05 04:36:11;;;;;;;5.88;1.65;;;2.20;99.90;;;;;;20592406;28;20038;-75
2021/12/05 04:46:16;;;;;;;1.50;0.70;;;2.20;99.90;;;;;;20593507;28;20178;-75
2021/12/05 04:56:20;;;;;;;4.70;0.98;;;2.40;99.90;;;;;;20588369;28;20049;-75
2021/12/05 05:06:22;;;;;;;9.65;1.13;;;2.40;99.90;;;;;;20591077;28;20092;-75
2021/12/05 05:16:25;;;;;;;4.50;1.00;;;2.30;99.90;;;;;;20591576;28;20027;-75
2021/12/05 05:26:58;;;;;;;3.25;1.30;;;2.30;99.90;;;;;;20594736;28;20043;-75
2021/12/05 05:47:28;;;;;;;2.70;1.45;;;2.30;99.90;;;;;;20592796;28;20042;-75
2021/12/05 06:07:41;;;;;;;6.53;1.80;;;2.20;99.90;;;;;;20602635;28;20031;-75
2021/12/05 06:17:42;;;;;;;5.22;1.80;;;2.20;99.90;;;;;;20600826;28;20718;-75
2021/12/05 06:27:44;;;;;;;8.80;2.75;;;2.30;99.90;;;;;;20600523;28;20034;-75
2021/12/05 06:38:04;;;;;;;3.85;1.75;;;2.30;99.90;;;;;;20599687;28;20035;-75
2021/12/05 06:48:05;;;;;;;2.13;1.38;;;2.30;99.90;;;;;;20599376;28;20046;-75
2021/12/05 06:58:06;;;;;;;4.85;1.85;;;2.10;99.90;;;;;;20596831;28;20035;-75
2021/12/05 07:08:09;;;;;;;4.72;1.55;;;1.90;99.90;;;;;;20596898;28;20042;-75
2021/12/05 07:49:10;;;;;;;8.80;2.35;;;2.30;99.90;;;;;;20597174;28;20109;-76
2021/12/05 08:19:38;;;;;;;10.43;3.85;;;3.30;99.90;;;;;;20588645;28;20141;-74
2021/12/05 10:42:52;;;;;;;12.88;2.78;;;4.90;99.90;;;;;;20602498;28;20126;-76
2021/12/05 10:53:20;;;;;;;14.80;3.90;;;5.10;99.90;;;;;;20602402;28;20065;-77
2021/12/05 11:03:22;;;;;;;3.22;2.10;;;5.40;99.90;;;;;;20602971;28;20043;-75
2021/12/05 11:13:28;;;;;;;3.88;2.40;;;6.50;99.90;;;;;;20604597;28;20513;-75
2021/12/05 11:23:29;;;;;;;8.35;3.28;;;5.90;99.90;;;;;;20600252;28;20045;-76
2021/12/05 11:33:30;;;;;;;4.07;1.80;;;6.10;99.90;;;;;;20598153;28;20031;-76
2021/12/05 11:43:31;;;;;;;2.67;1.50;;;7.00;99.90;;;;;;20598663;28;20046;-77
2021/12/05 11:53:41;;;;;;;4.20;1.92;;;8.30;99.90;;;;;;20598347;28;20054;-76
2021/12/05 12:03:42;;;;;;;6.63;2.72;;;7.40;99.90;;;;;;20597906;28;20497;-75
2021/12/05 12:13:43;;;;;;;2.03;1.30;;;6.80;99.90;;;;;;20597483;28;20038;-74
2021/12/05 12:23:51;;;;;;;3.67;1.30;;;6.00;99.90;;;;;;20598034;28;20054;-75
2021/12/05 12:33:56;;;;;;;3.55;1.50;;;6.10;99.90;;;;;;20598352;28;20026;-75
2021/12/05 12:44:04;;;;;;;3.72;1.92;;;5.50;99.90;;;;;;20597760;28;20042;-75
2021/12/05 12:54:23;;;;;;;2.72;1.95;;;5.30;99.90;;;;;;20595501;28;20041;-77
2021/12/05 13:04:50;;;;;;;5.68;3.53;;;4.60;99.90;;;;;;20599898;28;20046;-77
2021/12/05 13:15:04;;;;;;;10.82;3.42;;;6.80;99.90;;;;;;20593298;28;20889;-76
2021/12/05 13:25:08;;;;;;;24.25;7.57;;;6.70;99.90;;;;;;20596452;28;20053;-77
2021/12/05 13:35:11;;;;;;;11.75;3.05;;;7.10;99.90;;;;;;20589618;28;20038;-76
2021/12/05 13:45:29;;;;;;;31.65;9.93;;;6.60;99.90;;;;;;20590932;28;20057;-75
2021/12/05 13:55:53;;;;;;;8.23;3.80;;;6.40;99.90;;;;;;20586345;28;20035;-76
2021/12/05 14:05:54;;;;;;;2.90;2.00;;;5.80;99.90;;;;;;20587989;28;20046;-76
2021/12/05 14:15:58;;;;;;;8.33;3.90;;;5.50;99.90;;;;;;20594769;28;20050;-76
2021/12/05 14:26:11;;;;;;;13.52;4.38;;;5.10;99.90;;;;;;20606926;28;20045;-76
2021/12/05 14:36:31;;;;;;;6.88;3.70;;;5.20;99.90;;;;;;20604165;28;20382;-76
2021/12/05 14:46:32;;;;;;;7.28;3.35;;;5.00;99.90;;;;;;20602907;28;20034;-76
2021/12/05 14:56:34;;;;;;;;;;;5.10;99.90;;;;;;20605124;28;20037;-76
2021/12/05 15:06:39;;;;;;;4.60;2.47;;;4.70;99.90;;;;;;20601195;28;20388;-76
2021/12/05 15:16:52;;;;;;;8.18;3.22;;;4.30;99.90;;;;;;20598735;28;20049;-76
2021/12/05 15:26:55;;;;;;;65.55;22.17;;;4.10;99.90;;;;;;20599151;28;20050;-76
2021/12/05 15:36:58;;;;;;;16.88;8.23;;;4.20;99.90;;;;;;20599225;28;20054;-76
2021/12/05 15:47:08;;;;;;;5.35;3.67;;;4.20;99.90;;;;;;20599591;28;20042;-76
2021/12/05 15:57:22;;;;;;;2.30;2.00;;;4.10;99.90;;;;;;20595766;28;20396;-76
2021/12/05 16:07:28;;;;;;;3.80;2.80;;;4.10;99.90;;;;;;20594572;28;20038;-76
2021/12/05 16:17:31;;;;;;;3.28;2.58;;;4.10;99.90;;;;;;20594141;28;20046;-76
2021/12/05 16:27:32;;;;;;;3.35;2.03;;;4.10;99.90;;;;;;20596737;28;20042;-77
2021/12/05 16:37:37;;;;;;;4.18;1.90;;;3.70;99.90;;;;;;20593489;28;20031;-76
2021/12/05 16:47:39;;;;;;;1.67;1.38;;;3.30;99.90;;;;;;20597649;28;20034;-76
2021/12/05 16:57:44;;;;;;;3.90;1.98;;;3.30;99.90;;;;;;20591284;28;20126;-77
2021/12/05 17:18:18;;;;;;;2.63;1.20;;;2.50;99.90;;;;;;20592357;28;20110;-76
2021/12/05 17:28:30;;;;;;;0.93;0.70;;;2.30;99.90;;;;;;20591893;28;20119;-77
2021/12/05 17:38:34;;;;;;;0.40;0.40;;;1.50;99.90;;;;;;20606557;28;20397;-74
2021/12/05 17:48:35;;;;;;;8.10;4.65;;;1.60;99.90;;;;;;20594347;28;20073;-74
2021/12/05 18:08:43;;;;;;;3.60;2.10;;;1.30;99.90;;;;;;20606249;28;20667;-76
2021/12/05 18:18:45;;;;;;;4.43;2.42;;;1.50;99.90;;;;;;20605492;28;20043;-76
2021/12/05 18:28:49;;;;;;;4.55;1.90;;;1.40;99.90;;;;;;20613954;28;20062;-76
2021/12/05 18:38:50;;;;;;;2.88;1.90;;;1.40;99.90;;;;;;20620314;28;20035;-76
2021/12/05 18:48:51;;;;;;;6.20;2.47;;;1.30;99.90;;;;;;20609458;28;20501;-77
2021/12/05 18:58:53;;;;;;;3.88;2.47;;;1.20;99.90;;;;;;20605948;28;20113;-77
2021/12/05 19:19:03;;;;;;;5.40;3.45;;;1.10;99.90;;;;;;20601930;28;20057;-78
2021/12/05 19:29:05;;;;;;;3.97;2.35;;;0.90;99.90;;;;;;20600614;28;20138;-76
2021/12/05 19:39:06;;;;;;;4.45;2.60;;;0.90;99.90;;;;;;20600986;28;20066;-78
2021/12/05 19:49:07;;;;;;;3.55;2.50;;;1.00;99.90;;;;;;20602732;28;20126;-78
2021/12/05 19:59:10;;;;;;;7.55;4.00;;;0.60;99.90;;;;;;20598477;28;20121;-76
2021/12/05 20:09:12;;;;;;;11.27;6.70;;;0.90;99.90;;;;;;20598790;28;20597;-76
2021/12/05 20:19:13;;;;;;;329.25;13.95;;;0.80;99.90;;;;;;20599209;28;20168;-78
2021/12/05 20:29:14;;;;;;;100.35;10.55;;;0.20;99.90;;;;;;20599410;28;20583;-76
2021/12/05 20:39:15;;;;;;;9.07;4.45;;;0.00;99.90;;;;;;20598677;28;20266;-76
2021/12/05 20:49:16;;;;;;;9.65;4.70;;;0.00;99.90;;;;;;20594129;28;20524;-77
2021/12/05 20:59:17;;;;;;;8.65;4.40;;;0.20;99.90;;;;;;20590891;28;20197;-75
2021/12/05 21:09:18;;;;;;;6.55;4.05;;;0.50;99.90;;;;;;20593464;28;20026;-77
2021/12/05 21:19:19;;;;;;;8.35;4.72;;;0.50;99.90;;;;;;20613343;28;20023;-75
2021/12/05 21:29:20;;;;;;;8.02;3.78;;;0.50;99.90;;;;;;20642927;28;20027;-76
2021/12/05 21:39:21;;;;;;;6.25;4.00;;;0.40;99.90;;;;;;20638267;28;20043;-76
2021/12/05 21:49:22;;;;;;;115.90;8.73;;;0.40;99.90;;;;;;20633581;28;20451;-77
2021/12/05 21:59:23;;;;;;;16.60;8.00;;;0.60;99.90;;;;;;20639868;28;20034;-76
2021/12/05 22:09:24;;;;;;;11.23;5.70;;;0.60;99.90;;;;;;20655011;28;20023;-76
2021/12/05 22:19:26;;;;;;;9.63;5.75;;;0.50;99.90;;;;;;20631897;28;20027;-76
2021/12/05 22:29:27;;;;;;;9.45;5.15;;;0.70;99.90;;;;;;20636024;28;20109;-76
2021/12/05 22:39:29;;;;;;;12.65;6.57;;;0.70;99.90;;;;;;20633590;28;20042;-76
2021/12/05 22:49:30;;;;;;;12.57;6.32;;;0.80;99.90;;;;;;20598948;28;20101;-76
2021/12/05 22:59:31;;;;;;;12.85;6.70;;;0.80;99.90;;;;;;20598717;28;20058;-76
2021/12/05 23:09:33;;;;;;;15.15;7.00;;;0.80;99.90;;;;;;20591221;28;20039;-76
2021/12/05 23:19:33;;;;;;;16.60;7.00;;;0.90;99.90;;;;;;20590870;28;20531;-76
2021/12/05 23:29:36;;;;;;;13.60;6.70;;;0.90;99.90;;;;;;20589096;28;20066;-76
2021/12/05 23:39:37;;;;;;;18.67;8.00;;;0.90;99.90;;;;;;20588798;28;20026;-75
2021/12/05 23:49:38;;;;;;;18.10;8.40;;;0.90;99.90;;;;;;20585933;28;20030;-76
2021/12/05 23:59:39;;;;;;;23.17;9.20;;;0.80;99.90;;;;;;20587601;28;20031;-77
